sensor_id;sensor_type;location;lat;lon;timestamp;P1;durP1;ratioP1;P2;durP2;ratioP2
7935;SDS011;4013;49.744;8.118;2024-02-26T05:32:16;2.53;;;2.03;;
7935;SDS011;4013;49.744;8.118;2024-02-26T05:34:43;2.47;;;2.07;;
7935;SDS011;4013;49.744;8.118;2024-02-26T05:37:10;3.27;;;2.50;;
7935;SDS011;4013;49.744;8.118;2024-02-26T05:39:37;3.23;;;2.30;;
7935;SDS011;4013;49.744;8.118;2024-02-26T05:42:04;2.67;;;2.40;;
7935;SDS011;4013;49.744;8.118;2024-02-26T05:44:34;4.47;;;2.70;;
7935;SDS011;4013;49.744;8.118;2024-02-26T05:47:00;3.30;;;2.60;;
7935;SDS011;4013;49.744;8.118;2024-02-26T05:49:29;2.80;;;2.43;;
7935;SDS011;4013;49.744;8.118;2024-02-26T05:51:56;3.07;;;2.77;;
7935;SDS011;4013;49.744;8.118;2024-02-26T05:54:23;3.23;;;2.50;;
7935;SDS011;4013;49.744;8.118;2024-02-26T05:56:50;4.67;;;2.80;;
7935;SDS011;4013;49.744;8.118;2024-02-26T05:59:17;3.87;;;3.00;;
7935;SDS011;4013;49.744;8.118;2024-02-26T06:01:43;5.63;;;3.23;;
7935;SDS011;4013;49.744;8.118;2024-02-26T06:04:10;4.20;;;2.73;;
7935;SDS011;4013;49.744;8.118;2024-02-26T06:06:39;3.53;;;2.77;;
7935;SDS011;4013;49.744;8.118;2024-02-26T06:09:06;3.60;;;3.00;;
7935;SDS011;4013;49.744;8.118;2024-02-26T06:11:33;5.17;;;3.57;;
7935;SDS011;4013;49.744;8.118;2024-02-26T06:14:00;3.30;;;2.60;;
7935;SDS011;4013;49.744;8.118;2024-02-26T06:16:27;3.70;;;2.73;;
7935;SDS011;4013;49.744;8.118;2024-02-26T06:18:54;5.40;;;3.27;;
7935;SDS011;4013;49.744;8.118;2024-02-26T06:21:21;4.30;;;3.87;;
7935;SDS011;4013;49.744;8.118;2024-02-26T06:23:50;5.47;;;3.70;;
7935;SDS011;4013;49.744;8.118;2024-02-26T06:26:16;5.00;;;3.27;;
7935;SDS011;4013;49.744;8.118;2024-02-26T06:28:43;3.93;;;3.30;;
7935;SDS011;4013;49.744;8.118;2024-02-26T06:31:10;3.90;;;2.97;;
7935;SDS011;4013;49.744;8.118;2024-02-26T06:33:37;4.93;;;3.20;;
7935;SDS011;4013;49.744;8.118;2024-02-26T06:36:05;4.20;;;3.13;;
7935;SDS011;4013;49.744;8.118;2024-02-26T06:38:33;6.80;;;3.50;;
7935;SDS011;4013;49.744;8.118;2024-02-26T06:41:01;3.93;;;3.27;;
7935;SDS011;4013;49.744;8.118;2024-02-26T06:43:28;4.73;;;3.23;;
7935;SDS011;4013;49.744;8.118;2024-02-26T06:45:55;3.77;;;3.27;;
7935;SDS011;4013;49.744;8.118;2024-02-26T06:48:23;6.77;;;4.43;;
7935;SDS011;4013;49.744;8.118;2024-02-26T06:50:50;4.83;;;4.20;;
7935;SDS011;4013;49.744;8.118;2024-02-26T06:53:17;7.47;;;4.97;;
7935;SDS011;4013;49.744;8.118;2024-02-26T06:55:44;7.47;;;4.90;;
7935;SDS011;4013;49.744;8.118;2024-02-26T06:58:13;6.70;;;4.13;;
7935;SDS011;4013;49.744;8.118;2024-02-26T07:00:40;6.37;;;3.87;;
7935;SDS011;4013;49.744;8.118;2024-02-26T07:03:07;4.27;;;3.30;;
7935;SDS011;4013;49.744;8.118;2024-02-26T07:05:33;5.10;;;4.10;;
7935;SDS011;4013;49.744;8.118;2024-02-26T07:08:00;4.73;;;4.10;;
7935;SDS011;4013;49.744;8.118;2024-02-26T07:10:27;5.67;;;4.27;;
7935;SDS011;4013;49.744;8.118;2024-02-26T07:12:54;4.43;;;3.53;;
7935;SDS011;4013;49.744;8.118;2024-02-26T07:15:22;6.00;;;4.27;;
7935;SDS011;4013;49.744;8.118;2024-02-26T07:17:50;6.80;;;4.33;;
7935;SDS011;4013;49.744;8.118;2024-02-26T07:20:16;4.37;;;3.97;;
7935;SDS011;4013;49.744;8.118;2024-02-26T07:22:44;6.60;;;3.80;;
7935;SDS011;4013;49.744;8.118;2024-02-26T07:25:13;6.00;;;4.13;;
7935;SDS011;4013;49.744;8.118;2024-02-26T07:27:41;5.97;;;4.53;;
7935;SDS011;4013;49.744;8.118;2024-02-26T07:30:08;5.43;;;3.90;;
7935;SDS011;4013;49.744;8.118;2024-02-26T07:32:37;5.13;;;3.80;;
7935;SDS011;4013;49.744;8.118;2024-02-26T07:35:04;4.07;;;3.50;;
7935;SDS011;4013;49.744;8.118;2024-02-26T07:37:31;3.77;;;3.20;;
7935;SDS011;4013;49.744;8.118;2024-02-26T07:39:58;5.97;;;3.60;;
7935;SDS011;4013;49.744;8.118;2024-02-26T07:42:25;5.87;;;3.80;;
7935;SDS011;4013;49.744;8.118;2024-02-26T07:44:52;4.23;;;3.70;;
7935;SDS011;4013;49.744;8.118;2024-02-26T07:47:19;4.30;;;3.30;;
7935;SDS011;4013;49.744;8.118;2024-02-26T07:49:48;3.37;;;3.07;;
7935;SDS011;4013;49.744;8.118;2024-02-26T07:52:15;3.60;;;2.90;;
7935;SDS011;4013;49.744;8.118;2024-02-26T07:54:42;4.17;;;2.90;;
7935;SDS011;4013;49.744;8.118;2024-02-26T07:57:08;4.10;;;2.50;;
7935;SDS011;4013;49.744;8.118;2024-02-26T07:59:35;2.57;;;2.10;;
7935;SDS011;4013;49.744;8.118;2024-02-26T08:02:02;2.37;;;2.17;;
7935;SDS011;4013;49.744;8.118;2024-02-26T08:04:30;3.40;;;2.43;;
7935;SDS011;4013;49.744;8.118;2024-02-26T08:06:58;2.43;;;2.20;;
7935;SDS011;4013;49.744;8.118;2024-02-26T08:09:25;2.60;;;2.20;;
7935;SDS011;4013;49.744;8.118;2024-02-26T08:11:52;2.33;;;2.13;;
7935;SDS011;4013;49.744;8.118;2024-02-26T08:14:20;2.43;;;2.17;;
7935;SDS011;4013;49.744;8.118;2024-02-26T08:16:47;2.27;;;1.90;;
7935;SDS011;4013;49.744;8.118;2024-02-26T08:19:14;2.90;;;2.57;;
7935;SDS011;4013;49.744;8.118;2024-02-26T08:21:41;2.20;;;1.93;;
7935;SDS011;4013;49.744;8.118;2024-02-26T08:24:09;2.40;;;2.20;;
7935;SDS011;4013;49.744;8.118;2024-02-26T08:26:36;2.50;;;2.07;;
7935;SDS011;4013;49.744;8.118;2024-02-26T08:29:03;2.17;;;2.00;;
7935;SDS011;4013;49.744;8.118;2024-02-26T08:31:30;2.60;;;2.17;;
7935;SDS011;4013;49.744;8.118;2024-02-26T08:33:57;2.83;;;2.27;;
7935;SDS011;4013;49.744;8.118;2024-02-26T08:36:25;3.27;;;2.40;;
7935;SDS011;4013;49.744;8.118;2024-02-26T08:38:52;2.90;;;2.50;;
7935;SDS011;4013;49.744;8.118;2024-02-26T08:41:21;3.43;;;2.77;;
7935;SDS011;4013;49.744;8.118;2024-02-26T08:43:48;2.17;;;2.03;;
7935;SDS011;4013;49.744;8.118;2024-02-26T08:46:14;3.87;;;3.27;;
7935;SDS011;4013;49.744;8.118;2024-02-26T08:48:41;4.33;;;2.80;;
7935;SDS011;4013;49.744;8.118;2024-02-26T08:51:08;3.80;;;2.70;;
7935;SDS011;4013;49.744;8.118;2024-02-26T08:53:35;3.40;;;2.80;;
7935;SDS011;4013;49.744;8.118;2024-02-26T08:56:03;3.60;;;2.70;;
7935;SDS011;4013;49.744;8.118;2024-02-26T08:58:32;2.67;;;2.40;;
7935;SDS011;4013;49.744;8.118;2024-02-26T09:00:58;2.63;;;2.40;;
7935;SDS011;4013;49.744;8.118;2024-02-26T09:03:25;3.07;;;2.50;;
7935;SDS011;4013;49.744;8.118;2024-02-26T09:05:52;3.20;;;2.43;;
7935;SDS011;4013;49.744;8.118;2024-02-26T09:08:19;3.27;;;2.47;;
7935;SDS011;4013;49.744;8.118;2024-02-26T09:10:47;2.87;;;2.50;;
7935;SDS011;4013;49.744;8.118;2024-02-26T09:13:14;2.83;;;2.27;;
7935;SDS011;4013;49.744;8.118;2024-02-26T09:15:42;4.03;;;2.30;;
7935;SDS011;4013;49.744;8.118;2024-02-26T09:18:09;4.53;;;2.33;;
7935;SDS011;4013;49.744;8.118;2024-02-26T09:20:36;2.83;;;2.53;;
7935;SDS011;4013;49.744;8.118;2024-02-26T09:23:04;2.53;;;2.33;;
7935;SDS011;4013;49.744;8.118;2024-02-26T09:25:30;3.60;;;2.33;;
7935;SDS011;4013;49.744;8.118;2024-02-26T09:27:58;4.77;;;2.10;;
7935;SDS011;4013;49.744;8.118;2024-02-26T09:30:25;2.37;;;2.17;;
7935;SDS011;4013;49.744;8.118;2024-02-26T09:32:53;4.00;;;2.37;;
7935;SDS011;4013;49.744;8.118;2024-02-26T09:35:20;2.60;;;2.40;;
7935;SDS011;4013;49.744;8.118;2024-02-26T09:37:47;2.60;;;2.37;;
7935;SDS011;4013;49.744;8.118;2024-02-26T09:40:14;3.30;;;3.00;;
7935;SDS011;4013;49.744;8.118;2024-02-26T09:42:42;3.30;;;3.00;;
7935;SDS011;4013;49.744;8.118;2024-02-26T09:45:11;3.37;;;3.07;;
7935;SDS011;4013;49.744;8.118;2024-02-26T09:47:43;5.03;;;4.03;;
7935;SDS011;4013;49.744;8.118;2024-02-26T09:50:13;3.63;;;3.10;;
7935;SDS011;4013;49.744;8.118;2024-02-26T09:52:43;5.00;;;3.70;;
7935;SDS011;4013;49.744;8.118;2024-02-26T09:55:10;3.57;;;3.27;;
7935;SDS011;4013;49.744;8.118;2024-02-26T09:57:37;4.37;;;3.67;;
7935;SDS011;4013;49.744;8.118;2024-02-26T10:00:06;4.43;;;3.10;;
7935;SDS011;4013;49.744;8.118;2024-02-26T10:02:40;3.73;;;3.33;;
7935;SDS011;4013;49.744;8.118;2024-02-26T10:05:08;4.37;;;3.57;;
7935;SDS011;4013;49.744;8.118;2024-02-26T10:07:40;4.63;;;3.20;;
7935;SDS011;4013;49.744;8.118;2024-02-26T10:10:09;4.63;;;4.10;;
7935;SDS011;4013;49.744;8.118;2024-02-26T10:12:36;4.10;;;3.70;;
7935;SDS011;4013;49.744;8.118;2024-02-26T10:15:03;7.10;;;5.23;;
7935;SDS011;4013;49.744;8.118;2024-02-26T10:17:30;6.20;;;5.33;;
7935;SDS011;4013;49.744;8.118;2024-02-26T10:20:10;4.70;;;4.20;;
7935;SDS011;4013;49.744;8.118;2024-02-26T10:22:40;6.20;;;4.70;;
7935;SDS011;4013;49.744;8.118;2024-02-26T10:25:07;5.83;;;4.27;;
7935;SDS011;4013;49.744;8.118;2024-02-26T10:27:35;5.13;;;4.63;;
7935;SDS011;4013;49.744;8.118;2024-02-26T10:30:02;5.67;;;4.60;;
7935;SDS011;4013;49.744;8.118;2024-02-26T10:32:30;7.77;;;4.60;;
7935;SDS011;4013;49.744;8.118;2024-02-26T10:34:58;5.77;;;4.37;;
7935;SDS011;4013;49.744;8.118;2024-02-26T10:37:25;5.27;;;4.23;;
7935;SDS011;4013;49.744;8.118;2024-02-26T10:39:53;6.23;;;4.87;;
7935;SDS011;4013;49.744;8.118;2024-02-26T10:42:20;6.10;;;4.70;;
7935;SDS011;4013;49.744;8.118;2024-02-26T10:44:47;5.97;;;4.73;;
7935;SDS011;4013;49.744;8.118;2024-02-26T10:47:14;7.67;;;5.20;;
7935;SDS011;4013;49.744;8.118;2024-02-26T10:49:45;7.37;;;5.17;;
7935;SDS011;4013;49.744;8.118;2024-02-26T10:52:13;6.03;;;5.37;;
7935;SDS011;4013;49.744;8.118;2024-02-26T10:54:42;6.33;;;5.53;;
7935;SDS011;4013;49.744;8.118;2024-02-26T10:57:15;6.57;;;5.03;;
7935;SDS011;4013;49.744;8.118;2024-02-26T10:59:44;8.27;;;5.00;;
7935;SDS011;4013;49.744;8.118;2024-02-26T11:02:11;6.67;;;5.33;;
7935;SDS011;4013;49.744;8.118;2024-02-26T11:04:40;8.27;;;5.17;;
7935;SDS011;4013;49.744;8.118;2024-02-26T11:07:10;5.73;;;5.00;;
7935;SDS011;4013;49.744;8.118;2024-02-26T11:09:38;5.50;;;5.00;;
7935;SDS011;4013;49.744;8.118;2024-02-26T11:12:09;7.43;;;4.90;;
7935;SDS011;4013;49.744;8.118;2024-02-26T11:14:40;5.60;;;4.70;;
7935;SDS011;4013;49.744;8.118;2024-02-26T11:17:08;6.50;;;5.20;;
7935;SDS011;4013;49.744;8.118;2024-02-26T11:19:37;5.90;;;5.07;;
7935;SDS011;4013;49.744;8.118;2024-02-26T11:22:05;7.63;;;5.30;;
7935;SDS011;4013;49.744;8.118;2024-02-26T11:24:33;6.63;;;5.10;;
7935;SDS011;4013;49.744;8.118;2024-02-26T11:27:05;5.87;;;4.53;;
7935;SDS011;4013;49.744;8.118;2024-02-26T11:29:33;8.80;;;4.50;;
7935;SDS011;4013;49.744;8.118;2024-02-26T11:32:06;7.77;;;5.07;;
7935;SDS011;4013;49.744;8.118;2024-02-26T11:34:33;5.93;;;4.60;;
7935;SDS011;4013;49.744;8.118;2024-02-26T11:37:08;7.00;;;5.30;;
7935;SDS011;4013;49.744;8.118;2024-02-26T11:39:35;5.63;;;4.80;;
7935;SDS011;4013;49.744;8.118;2024-02-26T11:42:07;5.37;;;4.33;;
7935;SDS011;4013;49.744;8.118;2024-02-26T11:44:36;5.50;;;4.43;;
7935;SDS011;4013;49.744;8.118;2024-02-26T11:47:11;5.50;;;4.43;;
7935;SDS011;4013;49.744;8.118;2024-02-26T11:49:38;5.17;;;4.50;;
7935;SDS011;4013;49.744;8.118;2024-02-26T11:52:06;5.40;;;4.30;;
7935;SDS011;4013;49.744;8.118;2024-02-26T11:54:38;4.97;;;4.47;;
7935;SDS011;4013;49.744;8.118;2024-02-26T11:57:19;8.30;;;5.20;;
7935;SDS011;4013;49.744;8.118;2024-02-26T11:59:50;4.80;;;4.30;;
7935;SDS011;4013;49.744;8.118;2024-02-26T12:05:11;4.70;;;4.10;;
7935;SDS011;4013;49.744;8.118;2024-02-26T12:07:45;5.27;;;4.10;;
7935;SDS011;4013;49.744;8.118;2024-02-26T12:10:13;4.83;;;3.90;;
7935;SDS011;4013;49.744;8.118;2024-02-26T12:12:42;4.47;;;3.77;;
7935;SDS011;4013;49.744;8.118;2024-02-26T12:15:09;5.17;;;4.10;;
7935;SDS011;4013;49.744;8.118;2024-02-26T12:17:37;4.97;;;4.10;;
7935;SDS011;4013;49.744;8.118;2024-02-26T12:20:10;6.33;;;4.30;;
7935;SDS011;4013;49.744;8.118;2024-02-26T12:22:38;4.53;;;4.13;;
7935;SDS011;4013;49.744;8.118;2024-02-26T12:25:08;4.83;;;4.33;;
7935;SDS011;4013;49.744;8.118;2024-02-26T12:27:35;5.90;;;4.50;;
7935;SDS011;4013;49.744;8.118;2024-02-26T12:30:02;5.50;;;4.70;;
7935;SDS011;4013;49.744;8.118;2024-02-26T12:32:31;5.33;;;4.00;;
7935;SDS011;4013;49.744;8.118;2024-02-26T12:34:58;4.27;;;3.80;;
7935;SDS011;4013;49.744;8.118;2024-02-26T12:37:27;5.00;;;4.20;;
7935;SDS011;4013;49.744;8.118;2024-02-26T12:39:54;5.93;;;4.40;;
7935;SDS011;4013;49.744;8.118;2024-02-26T12:42:21;4.47;;;3.93;;
7935;SDS011;4013;49.744;8.118;2024-02-26T12:44:49;4.73;;;4.23;;
7935;SDS011;4013;49.744;8.118;2024-02-26T12:47:16;4.40;;;4.00;;
7935;SDS011;4013;49.744;8.118;2024-02-26T12:49:45;4.77;;;3.60;;
7935;SDS011;4013;49.744;8.118;2024-02-26T12:52:13;5.37;;;4.27;;
7935;SDS011;4013;49.744;8.118;2024-02-26T12:54:42;4.63;;;4.03;;
7935;SDS011;4013;49.744;8.118;2024-02-26T12:57:10;4.70;;;3.83;;
7935;SDS011;4013;49.744;8.118;2024-02-26T12:59:37;6.10;;;4.10;;
7935;SDS011;4013;49.744;8.118;2024-02-26T13:02:05;5.63;;;4.17;;
7935;SDS011;4013;49.744;8.118;2024-02-26T13:04:32;4.57;;;3.73;;
7935;SDS011;4013;49.744;8.118;2024-02-26T13:06:59;7.53;;;3.93;;
7935;SDS011;4013;49.744;8.118;2024-02-26T13:09:32;5.13;;;4.07;;
7935;SDS011;4013;49.744;8.118;2024-02-26T13:12:03;4.97;;;4.33;;
7935;SDS011;4013;49.744;8.118;2024-02-26T13:14:30;4.73;;;4.23;;
7935;SDS011;4013;49.744;8.118;2024-02-26T13:16:59;5.10;;;4.30;;
7935;SDS011;4013;49.744;8.118;2024-02-26T13:19:26;5.87;;;4.10;;
7935;SDS011;4013;49.744;8.118;2024-02-26T13:21:54;5.50;;;4.50;;
7935;SDS011;4013;49.744;8.118;2024-02-26T13:24:22;4.90;;;4.13;;
7935;SDS011;4013;49.744;8.118;2024-02-26T13:26:53;6.03;;;4.50;;
7935;SDS011;4013;49.744;8.118;2024-02-26T13:29:22;5.87;;;4.30;;
7935;SDS011;4013;49.744;8.118;2024-02-26T13:31:53;5.03;;;4.20;;
7935;SDS011;4013;49.744;8.118;2024-02-26T13:34:24;5.73;;;4.37;;
7935;SDS011;4013;49.744;8.118;2024-02-26T13:36:51;7.03;;;4.40;;
7935;SDS011;4013;49.744;8.118;2024-02-26T13:39:22;5.00;;;4.50;;
7935;SDS011;4013;49.744;8.118;2024-02-26T13:41:50;5.17;;;4.50;;
7935;SDS011;4013;49.744;8.118;2024-02-26T13:44:18;5.80;;;4.53;;
7935;SDS011;4013;49.744;8.118;2024-02-26T13:46:47;4.53;;;3.70;;
7935;SDS011;4013;49.744;8.118;2024-02-26T13:49:15;5.77;;;4.33;;
7935;SDS011;4013;49.744;8.118;2024-02-26T13:51:42;4.77;;;4.10;;
7935;SDS011;4013;49.744;8.118;2024-02-26T13:54:09;6.17;;;3.80;;
7935;SDS011;4013;49.744;8.118;2024-02-26T13:56:36;5.57;;;4.43;;
7935;SDS011;4013;49.744;8.118;2024-02-26T13:59:04;5.67;;;4.23;;
7935;SDS011;4013;49.744;8.118;2024-02-26T14:01:31;5.27;;;4.30;;
7935;SDS011;4013;49.744;8.118;2024-02-26T14:04:00;6.17;;;4.73;;
7935;SDS011;4013;49.744;8.118;2024-02-26T14:06:29;4.77;;;3.97;;
7935;SDS011;4013;49.744;8.118;2024-02-26T14:08:57;7.37;;;4.40;;
7935;SDS011;4013;49.744;8.118;2024-02-26T14:11:24;5.63;;;4.57;;
7935;SDS011;4013;49.744;8.118;2024-02-26T14:13:54;6.43;;;4.63;;
7935;SDS011;4013;49.744;8.118;2024-02-26T14:16:20;5.00;;;4.40;;
7935;SDS011;4013;49.744;8.118;2024-02-26T14:18:47;5.77;;;4.23;;
7935;SDS011;4013;49.744;8.118;2024-02-26T14:21:15;5.43;;;4.13;;
7935;SDS011;4013;49.744;8.118;2024-02-26T14:23:42;7.33;;;4.67;;
7935;SDS011;4013;49.744;8.118;2024-02-26T14:26:09;4.30;;;3.90;;
7935;SDS011;4013;49.744;8.118;2024-02-26T14:28:37;5.70;;;4.50;;
7935;SDS011;4013;49.744;8.118;2024-02-26T14:31:05;4.97;;;4.07;;
7935;SDS011;4013;49.744;8.118;2024-02-26T14:33:37;4.90;;;4.40;;
7935;SDS011;4013;49.744;8.118;2024-02-26T14:36:04;5.03;;;4.23;;
7935;SDS011;4013;49.744;8.118;2024-02-26T14:38:33;5.80;;;4.20;;
7935;SDS011;4013;49.744;8.118;2024-02-26T14:41:00;5.53;;;4.63;;
7935;SDS011;4013;49.744;8.118;2024-02-26T14:43:28;6.37;;;4.40;;
7935;SDS011;4013;49.744;8.118;2024-02-26T14:45:57;6.03;;;4.53;;
7935;SDS011;4013;49.744;8.118;2024-02-26T14:48:24;6.43;;;4.17;;
7935;SDS011;4013;49.744;8.118;2024-02-26T14:50:51;6.10;;;4.03;;
7935;SDS011;4013;49.744;8.118;2024-02-26T14:53:18;5.60;;;3.87;;
7935;SDS011;4013;49.744;8.118;2024-02-26T14:55:46;7.80;;;4.60;;
7935;SDS011;4013;49.744;8.118;2024-02-26T14:58:13;4.47;;;3.90;;
7935;SDS011;4013;49.744;8.118;2024-02-26T15:00:40;4.17;;;3.73;;
7935;SDS011;4013;49.744;8.118;2024-02-26T15:03:07;6.20;;;4.00;;
7935;SDS011;4013;49.744;8.118;2024-02-26T15:05:34;4.93;;;3.73;;
7935;SDS011;4013;49.744;8.118;2024-02-26T15:08:01;5.47;;;3.97;;
7935;SDS011;4013;49.744;8.118;2024-02-26T15:10:28;4.10;;;3.57;;
7935;SDS011;4013;49.744;8.118;2024-02-26T15:12:56;5.57;;;3.90;;
7935;SDS011;4013;49.744;8.118;2024-02-26T15:15:23;5.13;;;4.30;;
7935;SDS011;4013;49.744;8.118;2024-02-26T15:17:50;4.30;;;3.90;;
7935;SDS011;4013;49.744;8.118;2024-02-26T15:20:17;5.43;;;4.10;;
7935;SDS011;4013;49.744;8.118;2024-02-26T15:22:45;5.90;;;4.00;;
7935;SDS011;4013;49.744;8.118;2024-02-26T15:25:12;6.13;;;4.00;;
7935;SDS011;4013;49.744;8.118;2024-02-26T15:27:39;5.60;;;4.00;;
7935;SDS011;4013;49.744;8.118;2024-02-26T15:30:08;4.43;;;4.00;;
7935;SDS011;4013;49.744;8.118;2024-02-26T15:32:36;5.87;;;4.30;;
7935;SDS011;4013;49.744;8.118;2024-02-26T15:35:03;7.33;;;4.30;;
7935;SDS011;4013;49.744;8.118;2024-02-26T15:37:31;5.57;;;4.27;;
7935;SDS011;4013;49.744;8.118;2024-02-26T15:39:59;5.70;;;4.20;;
7935;SDS011;4013;49.744;8.118;2024-02-26T15:42:25;5.67;;;4.30;;
7935;SDS011;4013;49.744;8.118;2024-02-26T15:44:52;6.17;;;3.90;;
7935;SDS011;4013;49.744;8.118;2024-02-26T15:47:21;4.47;;;3.87;;
7935;SDS011;4013;49.744;8.118;2024-02-26T15:49:48;6.17;;;4.00;;
7935;SDS011;4013;49.744;8.118;2024-02-26T15:52:15;4.30;;;3.77;;
7935;SDS011;4013;49.744;8.118;2024-02-26T15:54:42;6.37;;;4.20;;
7935;SDS011;4013;49.744;8.118;2024-02-26T15:57:10;6.43;;;4.40;;
7935;SDS011;4013;49.744;8.118;2024-02-26T15:59:38;5.23;;;4.30;;
7935;SDS011;4013;49.744;8.118;2024-02-26T16:02:05;6.03;;;4.30;;
7935;SDS011;4013;49.744;8.118;2024-02-26T16:04:33;5.83;;;4.63;;
7935;SDS011;4013;49.744;8.118;2024-02-26T16:07:01;8.53;;;4.70;;
7935;SDS011;4013;49.744;8.118;2024-02-26T16:09:34;6.87;;;4.77;;
7935;SDS011;4013;49.744;8.118;2024-02-26T16:12:03;7.20;;;4.97;;
7935;SDS011;4013;49.744;8.118;2024-02-26T16:14:42;6.00;;;4.93;;
7935;SDS011;4013;49.744;8.118;2024-02-26T16:17:15;7.43;;;4.63;;
7935;SDS011;4013;49.744;8.118;2024-02-26T16:19:46;6.13;;;4.60;;
7935;SDS011;4013;49.744;8.118;2024-02-26T16:22:13;6.40;;;4.30;;
7935;SDS011;4013;49.744;8.118;2024-02-26T16:24:40;6.90;;;4.07;;
7935;SDS011;4013;49.744;8.118;2024-02-26T16:27:08;7.27;;;4.60;;
7935;SDS011;4013;49.744;8.118;2024-02-26T16:29:35;6.17;;;4.87;;
7935;SDS011;4013;49.744;8.118;2024-02-26T16:32:03;5.70;;;4.60;;
7935;SDS011;4013;49.744;8.118;2024-02-26T16:34:30;6.27;;;4.50;;
7935;SDS011;4013;49.744;8.118;2024-02-26T16:36:58;6.23;;;5.33;;
7935;SDS011;4013;49.744;8.118;2024-02-26T16:39:25;9.60;;;5.03;;
7935;SDS011;4013;49.744;8.118;2024-02-26T16:41:52;7.50;;;4.90;;
7935;SDS011;4013;49.744;8.118;2024-02-26T16:44:19;7.17;;;4.97;;
7935;SDS011;4013;49.744;8.118;2024-02-26T16:46:46;4.63;;;3.93;;
7935;SDS011;4013;49.744;8.118;2024-02-26T16:49:13;7.07;;;4.60;;
7935;SDS011;4013;49.744;8.118;2024-02-26T16:51:40;5.57;;;3.90;;
7935;SDS011;4013;49.744;8.118;2024-02-26T16:54:08;5.50;;;4.10;;
7935;SDS011;4013;49.744;8.118;2024-02-26T16:56:35;7.47;;;4.83;;
7935;SDS011;4013;49.744;8.118;2024-02-26T16:59:03;5.80;;;4.60;;
7935;SDS011;4013;49.744;8.118;2024-02-26T17:01:30;6.33;;;5.37;;
7935;SDS011;4013;49.744;8.118;2024-02-26T17:03:58;8.80;;;5.90;;
7935;SDS011;4013;49.744;8.118;2024-02-26T17:06:25;5.90;;;5.07;;
7935;SDS011;4013;49.744;8.118;2024-02-26T17:08:52;5.87;;;4.50;;
7935;SDS011;4013;49.744;8.118;2024-02-26T17:11:20;6.60;;;4.60;;
7935;SDS011;4013;49.744;8.118;2024-02-26T17:13:49;6.57;;;4.90;;
7935;SDS011;4013;49.744;8.118;2024-02-26T17:16:16;6.87;;;5.30;;
7935;SDS011;4013;49.744;8.118;2024-02-26T17:18:43;6.57;;;4.63;;
7935;SDS011;4013;49.744;8.118;2024-02-26T17:21:10;7.83;;;5.10;;
7935;SDS011;4013;49.744;8.118;2024-02-26T17:23:36;6.47;;;4.30;;
7935;SDS011;4013;49.744;8.118;2024-02-26T17:26:05;4.70;;;4.20;;
7935;SDS011;4013;49.744;8.118;2024-02-26T17:28:38;6.00;;;4.67;;
7935;SDS011;4013;49.744;8.118;2024-02-26T17:31:07;7.10;;;5.10;;
7935;SDS011;4013;49.744;8.118;2024-02-26T17:33:35;7.17;;;5.27;;
7935;SDS011;4013;49.744;8.118;2024-02-26T17:36:02;7.13;;;5.17;;
7935;SDS011;4013;49.744;8.118;2024-02-26T17:38:30;6.57;;;4.90;;
7935;SDS011;4013;49.744;8.118;2024-02-26T17:40:57;6.47;;;5.00;;
7935;SDS011;4013;49.744;8.118;2024-02-26T17:43:24;5.60;;;4.83;;
7935;SDS011;4013;49.744;8.118;2024-02-26T17:45:52;6.50;;;4.30;;
7935;SDS011;4013;49.744;8.118;2024-02-26T17:48:19;6.87;;;4.63;;
7935;SDS011;4013;49.744;8.118;2024-02-26T17:50:47;9.10;;;5.10;;
7935;SDS011;4013;49.744;8.118;2024-02-26T17:53:14;6.80;;;4.60;;
7935;SDS011;4013;49.744;8.118;2024-02-26T17:55:43;6.43;;;4.67;;
7935;SDS011;4013;49.744;8.118;2024-02-26T17:58:10;7.40;;;4.80;;
7935;SDS011;4013;49.744;8.118;2024-02-26T18:00:39;5.63;;;4.17;;
7935;SDS011;4013;49.744;8.118;2024-02-26T18:03:08;7.13;;;4.80;;
7935;SDS011;4013;49.744;8.118;2024-02-26T18:05:34;7.83;;;4.10;;
7935;SDS011;4013;49.744;8.118;2024-02-26T18:08:03;5.47;;;4.33;;
7935;SDS011;4013;49.744;8.118;2024-02-26T18:10:30;6.93;;;4.00;;
7935;SDS011;4013;49.744;8.118;2024-02-26T18:12:57;5.70;;;4.23;;
7935;SDS011;4013;49.744;8.118;2024-02-26T18:15:24;5.03;;;3.93;;
7935;SDS011;4013;49.744;8.118;2024-02-26T18:17:51;5.17;;;4.20;;
7935;SDS011;4013;49.744;8.118;2024-02-26T18:20:19;7.57;;;5.60;;
7935;SDS011;4013;49.744;8.118;2024-02-26T18:22:46;5.83;;;4.93;;
7935;SDS011;4013;49.744;8.118;2024-02-26T18:25:13;5.90;;;4.60;;
7935;SDS011;4013;49.744;8.118;2024-02-26T18:27:42;5.03;;;4.20;;
7935;SDS011;4013;49.744;8.118;2024-02-26T18:30:09;4.87;;;4.37;;
7935;SDS011;4013;49.744;8.118;2024-02-26T18:32:36;6.77;;;4.47;;
7935;SDS011;4013;49.744;8.118;2024-02-26T18:35:03;4.63;;;4.00;;
7935;SDS011;4013;49.744;8.118;2024-02-26T18:37:32;5.43;;;3.87;;
7935;SDS011;4013;49.744;8.118;2024-02-26T18:40:00;4.97;;;3.90;;
7935;SDS011;4013;49.744;8.118;2024-02-26T18:42:29;4.83;;;4.00;;
7935;SDS011;4013;49.744;8.118;2024-02-26T18:44:56;6.93;;;4.53;;
7935;SDS011;4013;49.744;8.118;2024-02-26T18:47:23;7.03;;;4.50;;
7935;SDS011;4013;49.744;8.118;2024-02-26T18:49:50;5.73;;;4.20;;
7935;SDS011;4013;49.744;8.118;2024-02-26T18:52:17;7.00;;;4.30;;
7935;SDS011;4013;49.744;8.118;2024-02-26T18:54:46;5.70;;;3.97;;
7935;SDS011;4013;49.744;8.118;2024-02-26T18:57:13;5.60;;;4.83;;
7935;SDS011;4013;49.744;8.118;2024-02-26T18:59:40;6.50;;;4.23;;
7935;SDS011;4013;49.744;8.118;2024-02-26T19:02:08;5.27;;;4.17;;
7935;SDS011;4013;49.744;8.118;2024-02-26T19:04:35;5.53;;;4.37;;
7935;SDS011;4013;49.744;8.118;2024-02-26T19:07:02;4.97;;;3.80;;
7935;SDS011;4013;49.744;8.118;2024-02-26T19:09:30;9.67;;;5.67;;
7935;SDS011;4013;49.744;8.118;2024-02-26T19:12:01;5.67;;;4.37;;
7935;SDS011;4013;49.744;8.118;2024-02-26T19:14:28;6.37;;;4.60;;
7935;SDS011;4013;49.744;8.118;2024-02-26T19:16:55;6.57;;;5.20;;
7935;SDS011;4013;49.744;8.118;2024-02-26T19:19:22;7.17;;;4.67;;
7935;SDS011;4013;49.744;8.118;2024-02-26T19:21:49;4.97;;;3.90;;
7935;SDS011;4013;49.744;8.118;2024-02-26T19:24:16;6.40;;;3.73;;
7935;SDS011;4013;49.744;8.118;2024-02-26T19:26:43;5.13;;;3.63;;
7935;SDS011;4013;49.744;8.118;2024-02-26T19:29:12;6.13;;;3.83;;
7935;SDS011;4013;49.744;8.118;2024-02-26T19:31:38;4.87;;;3.80;;
7935;SDS011;4013;49.744;8.118;2024-02-26T19:34:05;5.10;;;4.50;;
7935;SDS011;4013;49.744;8.118;2024-02-26T19:36:32;6.03;;;4.00;;
7935;SDS011;4013;49.744;8.118;2024-02-26T19:38:59;5.73;;;4.40;;
7935;SDS011;4013;49.744;8.118;2024-02-26T19:41:26;6.13;;;4.83;;
7935;SDS011;4013;49.744;8.118;2024-02-26T19:43:53;5.90;;;4.03;;
7935;SDS011;4013;49.744;8.118;2024-02-26T19:46:23;5.90;;;4.40;;
7935;SDS011;4013;49.744;8.118;2024-02-26T19:48:50;6.97;;;5.40;;
7935;SDS011;4013;49.744;8.118;2024-02-26T19:51:17;7.97;;;5.90;;
7935;SDS011;4013;49.744;8.118;2024-02-26T19:53:44;6.50;;;5.07;;
7935;SDS011;4013;49.744;8.118;2024-02-26T19:56:13;7.57;;;5.03;;
7935;SDS011;4013;49.744;8.118;2024-02-26T19:58:40;4.73;;;3.70;;
7935;SDS011;4013;49.744;8.118;2024-02-26T20:01:08;5.37;;;4.10;;
7935;SDS011;4013;49.744;8.118;2024-02-26T20:03:37;6.27;;;4.37;;
7935;SDS011;4013;49.744;8.118;2024-02-26T20:06:04;6.20;;;3.40;;
7935;SDS011;4013;49.744;8.118;2024-02-26T20:08:31;4.33;;;3.77;;
7935;SDS011;4013;49.744;8.118;2024-02-26T20:10:58;6.13;;;3.70;;
7935;SDS011;4013;49.744;8.118;2024-02-26T20:13:25;5.43;;;3.97;;
7935;SDS011;4013;49.744;8.118;2024-02-26T20:15:53;4.17;;;3.40;;
7935;SDS011;4013;49.744;8.118;2024-02-26T20:18:20;6.07;;;3.90;;
7935;SDS011;4013;49.744;8.118;2024-02-26T20:20:48;5.10;;;3.50;;
7935;SDS011;4013;49.744;8.118;2024-02-26T20:23:16;3.83;;;3.37;;
7935;SDS011;4013;49.744;8.118;2024-02-26T20:25:43;5.10;;;4.23;;
7935;SDS011;4013;49.744;8.118;2024-02-26T20:28:10;4.57;;;3.73;;
7935;SDS011;4013;49.744;8.118;2024-02-26T20:30:37;4.73;;;3.53;;
7935;SDS011;4013;49.744;8.118;2024-02-26T20:33:04;5.53;;;3.70;;
7935;SDS011;4013;49.744;8.118;2024-02-26T20:35:31;4.93;;;3.70;;
7935;SDS011;4013;49.744;8.118;2024-02-26T20:37:59;5.37;;;3.83;;
7935;SDS011;4013;49.744;8.118;2024-02-26T20:40:26;4.67;;;3.40;;
7935;SDS011;4013;49.744;8.118;2024-02-26T20:42:53;5.03;;;4.07;;
7935;SDS011;4013;49.744;8.118;2024-02-26T20:45:20;5.63;;;3.93;;
7935;SDS011;4013;49.744;8.118;2024-02-26T20:47:47;5.43;;;3.40;;
7935;SDS011;4013;49.744;8.118;2024-02-26T20:50:16;5.93;;;4.13;;
7935;SDS011;4013;49.744;8.118;2024-02-26T20:52:45;4.90;;;4.07;;